Time;durP1;ratioP1;P1;durP2;ratioP2;P2;SDS_P1;SDS_P2;PMS_P1;PMS_P2;Temp;Humidity;BMP_temperature;BMP_pressure;BME280_temperature;BME280_humidity;BME280_pressure;Samples;Min_cycle;Max_cycle;Signal;HPM_P1;HPM_P2
2022/01/04 00:01:57;;;;;;;1.52;1.05;;;;;;;10.20;100.00;98127.53;5013083;28;20057;-81
2022/01/04 00:05:00;;;;;;;1.45;0.60;;;;;;;10.32;100.00;98129.00;5023619;28;20053;-82
2022/01/04 00:08:08;;;;;;;0.15;0.10;;;;;;;10.34;100.00;98123.66;5012857;28;20056;-81
2022/01/04 00:11:30;;;;;;;0.20;0.10;;;;;;;10.27;100.00;98120.66;5013188;28;20121;-81
2022/01/04 00:14:34;;;;;;;3.10;0.63;;;;;;;10.20;100.00;98124.03;5012784;28;20400;-81
2022/01/04 00:17:39;;;;;;;3.05;0.90;;;;;;;10.15;100.00;98125.56;5012530;28;20502;-81
2022/01/04 00:20:42;;;;;;;0.93;0.43;;;;;;;10.26;100.00;98117.16;5012697;28;20404;-80
2022/01/04 00:23:45;;;;;;;0.40;0.40;;;;;;;10.29;100.00;98110.53;5012722;28;20053;-81
2022/01/04 00:26:49;;;;;;;6.13;0.35;;;;;;;10.21;100.00;98112.38;5025795;28;20509;-81
2022/01/04 00:29:52;;;;;;;9.63;0.55;;;;;;;10.16;100.00;98104.81;5032703;28;20065;-81
2022/01/04 00:32:56;;;;;;;0.82;0.50;;;;;;;10.14;100.00;98099.00;5032171;28;20419;-82
2022/01/04 00:35:59;;;;;;;0.75;0.57;;;;;;;10.21;100.00;98106.03;5035690;28;20133;-81
2022/01/04 00:39:03;;;;;;;18.55;0.88;;;;;;;10.34;100.00;98093.06;5011778;28;20049;-81
2022/01/04 00:42:06;;;;;;;9.93;0.77;;;;;;;10.31;100.00;98087.78;5012670;28;20076;-81
2022/01/04 00:45:09;;;;;;;0.38;0.38;;;;;;;10.26;100.00;98092.13;5026297;28;20423;-80
2022/01/04 00:51:16;;;;;;;21.35;0.80;;;;;;;10.39;100.00;98083.94;5012472;28;20065;-81
2022/01/04 00:54:21;;;;;;;3.15;0.40;;;;;;;10.29;100.00;98074.38;5012341;28;20126;-80
2022/01/04 00:57:24;;;;;;;3.92;1.17;;;;;;;10.26;100.00;98078.19;5030146;28;20068;-81
2022/01/04 01:00:27;;;;;;;0.75;0.40;;;;;;;10.34;100.00;98070.81;5030928;28;20407;-81
2022/01/04 01:03:31;;;;;;;0.15;0.15;;;;;;;10.42;100.00;98066.19;5031870;28;20052;-82
2022/01/04 01:06:35;;;;;;;4.30;0.65;;;;;;;10.40;100.00;98063.16;5031604;28;20082;-80
2022/01/04 01:09:49;;;;;;;1.40;0.73;;;;;;;10.40;100.00;98068.72;5031886;28;20052;-80
2022/01/04 01:12:53;;;;;;;0.10;0.10;;;;;;;10.39;100.00;98066.47;5030884;28;20044;-81
2022/01/04 01:15:56;;;;;;;0.30;0.22;;;;;;;10.27;100.00;98065.78;5029717;28;20693;-81
2022/01/04 01:19:00;;;;;;;0.35;0.35;;;;;;;10.34;100.00;98059.69;5042277;28;20606;-80
2022/01/04 01:22:04;;;;;;;0.55;0.32;;;;;;;10.22;100.00;98058.22;5030893;28;20061;-80
2022/01/04 01:25:09;;;;;;;0.20;0.20;;;;;;;10.08;100.00;98059.31;5031838;28;20072;-80
2022/01/04 01:28:14;;;;;;;12.20;1.42;;;;;;;10.16;100.00;98053.97;5031746;28;20490;-81
2022/01/04 01:31:17;;;;;;;0.22;0.22;;;;;;;10.08;100.00;98053.75;5031629;28;20056;-80
2022/01/04 01:34:21;;;;;;;0.40;0.30;;;;;;;9.93;100.00;98047.78;5031706;28;20502;-81
2022/01/04 01:37:24;;;;;;;0.10;0.10;;;;;;;9.93;100.00;98036.66;5030474;28;20060;-81
2022/01/04 01:40:27;;;;;;;0.75;0.55;;;;;;;9.97;100.00;98030.81;5031332;28;20052;-80
2022/01/04 01:43:31;;;;;;;0.45;0.45;;;;;;;10.10;100.00;98034.53;5030333;28;20092;-80
2022/01/04 01:46:35;;;;;;;1.35;0.63;;;;;;;10.14;100.00;98037.81;5017904;28;20053;-80
2022/01/04 01:49:39;;;;;;;10.90;0.68;;;;;;;10.04;100.00;98035.84;5021518;28;20045;-82
2022/01/04 01:52:46;;;;;;;3.50;0.70;;;;;;;10.08;100.00;98034.28;5010604;28;20049;-81
2022/01/04 01:55:49;;;;;;;0.13;0.10;;;;;;;10.08;100.00;98025.94;5010218;28;20061;-81
2022/01/04 01:58:53;;;;;;;0.10;0.10;;;;;;;9.92;100.00;98024.03;5021722;28;20045;-81
2022/01/04 02:01:56;;;;;;;0.15;0.15;;;;;;;9.78;100.00;98030.69;5021470;28;20049;-81
2022/01/04 02:05:01;;;;;;;0.73;0.57;;;;;;;9.70;100.00;98024.19;5010217;28;20060;-81
2022/01/04 02:08:05;;;;;;;0.10;0.10;;;;;;;9.49;100.00;98026.53;5010767;28;20049;-80
2022/01/04 02:11:08;;;;;;;0.20;0.10;;;;;;;9.40;100.00;98017.75;5010615;28;20057;-81
2022/01/04 02:14:12;;;;;;;1.45;1.00;;;;;;;9.43;100.00;98017.50;5010655;28;20061;-81
2022/01/04 02:17:16;;;;;;;0.10;0.10;;;;;;;9.33;100.00;98015.50;5010870;28;20057;-80
2022/01/04 02:20:20;;;;;;;1.27;0.52;;;;;;;9.27;100.00;97998.84;4998630;28;20069;-81
2022/01/04 02:23:24;;;;;;;0.10;0.10;;;;;;;9.27;100.00;98012.00;5009337;28;20068;-81
2022/01/04 02:26:30;;;;;;;0.10;0.10;;;;;;;9.30;100.00;98020.06;5010037;28;20528;-81
2022/01/04 02:29:33;;;;;;;0.10;0.10;;;;;;;9.29;100.00;98017.81;5009473;28;20068;-81
2022/01/04 02:32:37;;;;;;;2.05;0.80;;;;;;;9.39;100.00;98016.25;5009360;28;20057;-81
2022/01/04 02:35:41;;;;;;;0.20;0.10;;;;;;;9.52;100.00;98027.53;5010244;28;20060;-81
2022/01/04 02:38:44;;;;;;;1.83;1.02;;;;;;;9.66;100.00;98034.78;5010599;28;20125;-81
2022/01/04 02:41:47;;;;;;;0.10;0.10;;;;;;;9.76;100.00;98027.69;5028887;28;20052;-80
2022/01/04 02:44:51;;;;;;;0.20;0.10;;;;;;;9.82;100.00;98036.72;5029171;28;20129;-79
2022/01/04 02:47:55;;;;;;;4.00;0.17;;;;;;;9.81;100.00;98029.69;5014484;28;20049;-79
2022/01/04 02:50:58;;;;;;;1.13;0.30;;;;;;;9.81;100.00;98029.69;5027715;28;20053;-81
2022/01/04 02:54:01;;;;;;;1.27;0.28;;;;;;;9.93;100.00;98031.88;5077398;23;20126;-84
2022/01/04 02:57:05;;;;;;;0.20;0.20;;;;;;;9.93;100.00;98031.09;4990648;28;20058;-84
2022/01/04 03:00:12;;;;;;;5.10;0.55;;;;;;;9.98;100.00;98033.09;4985721;28;20050;-85
2022/01/04 03:03:15;;;;;;;1.13;1.10;;;;;;;10.07;100.00;98035.56;4972051;28;20049;-84
2022/01/04 03:06:18;;;;;;;0.28;0.28;;;;;;;10.09;100.00;98037.84;4982380;28;20511;-84
2022/01/04 03:09:22;;;;;;;1.58;0.25;;;;;;;10.13;100.00;98039.09;4991802;28;20057;-84
2022/01/04 03:12:26;;;;;;;1.88;0.75;;;;;;;10.12;100.00;98029.22;4991515;28;20492;-84
2022/01/04 03:15:29;;;;;;;0.25;0.22;;;;;;;10.14;100.00;98035.03;4991054;28;20049;-84
2022/01/04 03:18:33;;;;;;;2.42;0.65;;;;;;;10.15;100.00;98033.78;4991274;28;20053;-84
2022/01/04 03:21:42;;;;;;;16.75;1.40;;;;;;;10.16;100.00;98032.47;5001559;28;20057;-83
2022/01/04 03:24:45;;;;;;;0.73;0.20;;;;;;;10.17;100.00;98034.00;4991455;28;20656;-84
2022/01/04 03:27:48;;;;;;;3.28;1.27;;;;;;;10.15;100.00;98036.56;4991590;28;20054;-84
2022/01/04 03:30:52;;;;;;;4.38;1.00;;;;;;;10.12;100.00;98037.56;4990688;28;20049;-84
2022/01/04 03:33:55;;;;;;;0.73;0.47;;;;;;;10.19;100.00;98052.94;5001318;28;20061;-84
2022/01/04 03:36:59;;;;;;;0.10;0.00;;;;;;;9.88;100.00;98070.81;4994441;28;20057;-84
2022/01/04 03:40:04;;;;;;;0.10;0.10;;;;;;;9.38;100.00;98064.72;4995444;28;20049;-85
2022/01/04 03:43:08;;;;;;;0.10;0.10;;;;;;;8.95;100.00;98062.34;4994893;28;20049;-84
2022/01/04 03:46:11;;;;;;;0.20;0.20;;;;;;;8.67;100.00;98075.50;4994987;28;20054;-86
2022/01/04 03:49:14;;;;;;;0.43;0.43;;;;;;;8.51;100.00;98084.56;4994842;28;20058;-84
2022/01/04 03:52:18;;;;;;;0.10;0.10;;;;;;;8.31;100.00;98082.06;4994655;28;20053;-84
2022/01/04 03:55:22;;;;;;;0.10;0.10;;;;;;;8.13;100.00;98093.59;4994173;28;20057;-83
2022/01/04 03:58:25;;;;;;;0.10;0.10;;;;;;;8.07;100.00;98096.38;4985764;28;20500;-84
2022/01/04 04:01:28;;;;;;;0.10;0.10;;;;;;;8.06;100.00;98105.94;4974698;28;20058;-84
2022/01/04 04:04:32;;;;;;;0.10;0.08;;;;;;;8.02;100.00;98110.97;4986014;28;20408;-84
2022/01/04 04:07:35;;;;;;;0.10;0.10;;;;;;;7.93;100.00;98116.72;4974621;28;20516;-84
2022/01/04 04:10:38;;;;;;;0.20;0.20;;;;;;;7.81;100.00;98122.75;4974457;28;20058;-85
2022/01/04 04:13:42;;;;;;;0.10;0.10;;;;;;;7.74;100.00;98123.97;4975373;28;20058;-84
2022/01/04 04:16:45;;;;;;;0.20;0.20;;;;;;;7.68;100.00;98136.28;4988308;28;20153;-84
2022/01/04 04:19:48;;;;;;;0.20;0.20;;;;;;;7.51;100.00;98123.13;4994244;28;20061;-84
2022/01/04 04:22:52;;;;;;;0.20;0.20;;;;;;;7.42;100.00;98139.19;5004400;28;20503;-83
2022/01/04 04:25:56;;;;;;;0.10;0.10;;;;;;;7.29;100.00;98142.41;4994315;28;20061;-83
2022/01/04 04:29:00;;;;;;;0.20;0.10;;;;;;;7.19;100.00;98135.53;4993892;28;20484;-85
2022/01/04 04:32:04;;;;;;;0.10;0.10;;;;;;;7.15;100.00;98135.00;4994646;28;20161;-83
2022/01/04 04:35:07;;;;;;;0.10;0.10;;;;;;;7.14;100.00;98139.06;4993757;28;20077;-84
2022/01/04 04:38:10;;;;;;;0.20;0.20;;;;;;;7.11;100.00;98148.31;5013577;28;20057;-84
2022/01/04 04:41:14;;;;;;;0.20;0.20;;;;;;;7.11;100.00;98151.09;5014267;28;20061;-84
2022/01/04 04:44:17;;;;;;;0.10;0.10;;;;;;;7.17;100.00;98154.66;4974968;28;20069;-84
2022/01/04 04:47:21;;;;;;;0.20;0.20;;;;;;;7.18;100.00;98149.88;4992647;28;20649;-84
2022/01/04 04:50:24;;;;;;;0.10;0.10;;;;;;;7.12;100.00;98155.41;4993758;28;20054;-84
2022/01/04 04:53:28;;;;;;;0.20;0.20;;;;;;;7.08;100.00;98146.53;4993702;28;20061;-84
2022/01/04 04:56:31;;;;;;;0.10;0.10;;;;;;;7.10;100.00;98144.06;4993160;28;20539;-84
2022/01/04 04:59:34;;;;;;;0.10;0.10;;;;;;;7.03;100.00;98144.50;4993437;28;20057;-85
2022/01/04 05:02:38;;;;;;;0.10;0.10;;;;;;;7.05;100.00;98142.00;5004912;28;20057;-85
2022/01/04 05:05:41;;;;;;;0.10;0.10;;;;;;;7.12;100.00;98158.16;4994258;28;20057;-84
2022/01/04 05:08:45;;;;;;;0.10;0.10;;;;;;;7.18;100.00;98166.50;4993698;28;20049;-85
2022/01/04 05:11:48;;;;;;;0.10;0.10;;;;;;;7.23;100.00;98168.53;5003598;28;20081;-85
2022/01/04 05:14:51;;;;;;;0.20;0.20;;;;;;;7.36;100.00;98166.84;5004714;28;20405;-85
2022/01/04 05:17:55;;;;;;;0.10;0.10;;;;;;;7.35;100.00;98165.34;4993455;28;20061;-85
2022/01/04 05:20:58;;;;;;;0.10;0.10;;;;;;;7.38;100.00;98158.06;4993782;28;20057;-84
2022/01/04 05:24:02;;;;;;;0.20;0.20;;;;;;;7.39;100.00;98171.41;4993990;28;20053;-84
2022/01/04 05:27:06;;;;;;;0.10;0.10;;;;;;;7.44;100.00;98179.00;4993167;28;20409;-84
2022/01/04 05:30:10;;;;;;;0.20;0.20;;;;;;;7.42;100.00;98178.72;4993019;28;20054;-84
2022/01/04 05:33:13;;;;;;;0.10;0.10;;;;;;;7.39;100.00;98176.19;4993112;28;20065;-84
2022/01/04 05:36:16;;;;;;;0.10;0.10;;;;;;;7.38;100.00;98178.22;4992707;28;20057;-81
2022/01/04 05:39:20;;;;;;;0.10;0.10;;;;;;;7.30;100.00;98174.38;5002284;28;20057;-79
2022/01/04 05:42:23;;;;;;;0.10;0.10;;;;;;;7.28;100.00;98182.41;4972707;28;20524;-79
2022/01/04 05:45:28;;;;;;;0.10;0.10;;;;;;;7.26;100.00;98170.31;4973955;28;20057;-79
2022/01/04 05:48:32;;;;;;;0.20;0.20;;;;;;;7.29;100.00;98177.63;4991745;28;20057;-79
2022/01/04 05:51:35;;;;;;;0.38;0.30;;;;;;;7.17;100.00;98184.38;4991494;28;20495;-79
2022/01/04 05:54:39;;;;;;;0.10;0.10;;;;;;;7.20;100.00;98186.13;4992363;28;20053;-79
2022/01/04 05:57:43;;;;;;;0.10;0.10;;;;;;;7.08;100.00;98185.28;4991214;28;20063;-80
2022/01/04 06:00:46;;;;;;;0.10;0.10;;;;;;;6.87;100.00;98197.69;4991832;28;20053;-80
2022/01/04 06:03:51;;;;;;;0.10;0.10;;;;;;;6.79;100.00;98210.47;4990848;28;20053;-80
2022/01/04 06:06:54;;;;;;;0.10;0.10;;;;;;;6.77;100.00;98210.19;4993455;28;20061;-79
2022/01/04 06:09:58;;;;;;;0.10;0.10;;;;;;;6.68;100.00;98216.66;4970554;28;20054;-80
2022/01/04 06:16:04;;;;;;;0.20;0.20;;;;;;;6.57;100.00;98221.31;4979699;28;20061;-80
2022/01/04 06:19:08;;;;;;;0.22;0.22;;;;;;;6.47;100.00;98236.56;4991527;28;20053;-79
2022/01/04 06:22:11;;;;;;;0.10;0.10;;;;;;;6.44;100.00;98232.00;5001160;28;20495;-80
2022/01/04 06:25:17;;;;;;;0.10;0.10;;;;;;;6.36;100.00;98241.97;4991012;28;20054;-79
2022/01/04 06:28:21;;;;;;;0.45;0.25;;;;;;;6.35;100.00;98245.97;4990631;28;20073;-80
2022/01/04 06:31:27;;;;;;;4.55;0.30;;;;;;;6.34;100.00;98258.28;4991158;28;20069;-80
2022/01/04 06:34:30;;;;;;;0.20;0.20;;;;;;;6.36;100.00;98264.09;4990363;28;20049;-80
2022/01/04 06:37:34;;;;;;;0.15;0.15;;;;;;;6.24;100.00;98265.22;5001328;28;20057;-79
2022/01/04 06:40:37;;;;;;;0.13;0.13;;;;;;;6.23;100.00;98261.69;5009072;28;20053;-81
2022/01/04 06:43:41;;;;;;;0.17;0.17;;;;;;;6.22;100.00;98262.91;5006616;28;20064;-80
2022/01/04 06:46:45;;;;;;;0.10;0.10;;;;;;;6.15;100.00;98259.81;4983722;28;20050;-81
2022/01/04 06:49:49;;;;;;;0.70;0.70;;;;;;;6.23;100.00;98271.97;4971228;28;20057;-79
2022/01/04 06:52:52;;;;;;;0.47;0.25;;;;;;;6.22;100.00;98271.22;4987816;28;20049;-81
2022/01/04 06:55:55;;;;;;;1.65;0.17;;;;;;;6.23;100.00;98274.75;4981791;28;20057;-80
2022/01/04 06:58:59;;;;;;;0.20;0.20;;;;;;;6.29;100.00;98281.09;4980183;28;20519;-81
2022/01/04 07:02:03;;;;;;;3.50;0.30;;;;;;;6.17;100.00;98287.75;4980006;28;20693;-80
2022/01/04 07:05:06;;;;;;;0.10;0.10;;;;;;;6.07;100.00;98285.09;4980095;28;20049;-80
2022/01/04 07:08:10;;;;;;;0.10;0.10;;;;;;;6.05;100.00;98293.13;4971932;28;20058;-80
2022/01/04 07:11:15;;;;;;;0.32;0.30;;;;;;;6.10;100.00;98300.72;4975368;28;20054;-81
2022/01/04 07:14:19;;;;;;;0.10;0.10;;;;;;;6.10;100.00;98292.44;4975080;28;20057;-81
2022/01/04 07:17:22;;;;;;;4.03;0.30;;;;;;;6.05;100.00;98297.88;4992325;28;20084;-81
2022/01/04 07:20:25;;;;;;;0.45;0.45;;;;;;;5.99;100.00;98302.56;4992166;28;20053;-81
2022/01/04 07:23:29;;;;;;;0.13;0.13;;;;;;;5.96;100.00;98293.25;4985758;28;20042;-80
2022/01/04 07:26:32;;;;;;;0.20;0.13;;;;;;;6.00;100.00;98304.84;4985789;28;20053;-81
2022/01/04 07:29:36;;;;;;;1.65;0.47;;;;;;;5.97;100.00;98310.59;4982419;28;20078;-80
2022/01/04 07:32:39;;;;;;;0.40;0.40;;;;;;;5.95;100.00;98313.06;4974842;28;20074;-81
2022/01/04 07:35:44;;;;;;;0.68;0.22;;;;;;;5.94;100.00;98317.84;4979311;28;20077;-80
2022/01/04 07:38:48;;;;;;;0.80;0.40;;;;;;;5.94;100.00;98323.38;5001580;28;20049;-81
2022/01/04 07:41:51;;;;;;;2.30;0.50;;;;;;;5.91;100.00;98318.03;4975056;28;20054;-80
2022/01/04 07:44:54;;;;;;;0.68;0.35;;;;;;;5.87;100.00;98320.22;4980240;28;20049;-81
2022/01/04 07:47:58;;;;;;;0.63;0.47;;;;;;;5.71;100.00;98321.50;4992270;28;20073;-81
2022/01/04 07:51:02;;;;;;;3.15;0.40;;;;;;;5.68;100.00;98327.97;4986395;28;20054;-81
2022/01/04 07:54:05;;;;;;;0.32;0.25;;;;;;;5.59;100.00;98328.06;4980722;28;20054;-81
2022/01/04 07:57:09;;;;;;;0.40;0.30;;;;;;;5.55;100.00;98337.78;4983175;28;20050;-81
2022/01/04 08:00:14;;;;;;;0.10;0.10;;;;;;;5.57;100.00;98338.84;4982146;28;20531;-80
2022/01/04 08:03:17;;;;;;;1.55;1.33;;;;;;;5.51;100.00;98345.50;4978989;28;20404;-80
2022/01/04 08:06:21;;;;;;;1.95;0.68;;;;;;;5.43;100.00;98345.16;4984233;28;20049;-80
2022/01/04 08:09:25;;;;;;;0.60;0.60;;;;;;;5.34;100.00;98348.00;4993602;28;20057;-80
2022/01/04 08:12:29;;;;;;;9.73;1.48;;;;;;;5.34;100.00;98348.00;5003657;28;20416;-81
2022/01/04 08:15:32;;;;;;;0.20;0.20;;;;;;;5.32;100.00;98344.97;5003132;28;20530;-80
2022/01/04 08:18:35;;;;;;;0.63;0.20;;;;;;;5.25;100.00;98350.88;5004055;28;20412;-84
2022/01/04 08:21:38;;;;;;;0.60;0.60;;;;;;;5.17;100.00;98344.22;5002986;28;20057;-81
2022/01/04 08:24:42;;;;;;;0.25;0.25;;;;;;;5.12;100.00;98347.63;4994298;28;20057;-81
2022/01/04 08:27:45;;;;;;;0.40;0.30;;;;;;;5.13;100.00;98343.66;4974142;28;20057;-81
2022/01/04 08:30:48;;;;;;;0.32;0.32;;;;;;;4.99;100.00;98350.66;4972222;28;20053;-82
2022/01/04 08:33:53;;;;;;;0.40;0.40;;;;;;;4.89;100.00;98362.25;5008884;28;20056;-82
2022/01/04 08:36:57;;;;;;;0.20;0.20;;;;;;;4.86;100.00;98363.19;4982999;28;20073;-82
2022/01/04 08:40:01;;;;;;;1.35;0.32;;;;;;;4.86;100.00;98379.75;4980482;28;20049;-81
2022/01/04 08:43:05;;;;;;;0.35;0.35;;;;;;;4.77;100.00;98382.56;5012805;28;20057;-79
2022/01/04 08:46:08;;;;;;;0.10;0.10;;;;;;;4.67;100.00;98373.63;4995408;28;20057;-81
2022/01/04 08:49:12;;;;;;;0.20;0.20;;;;;;;4.61;100.00;98381.78;4975982;28;20045;-79
2022/01/04 08:52:16;;;;;;;0.17;0.17;;;;;;;4.57;100.00;98389.47;4973003;28;20057;-79
2022/01/04 08:55:21;;;;;;;0.13;0.13;;;;;;;4.46;100.00;98396.75;4975044;28;20058;-80
2022/01/04 08:58:24;;;;;;;11.98;0.70;;;;;;;4.39;100.00;98405.38;4992731;28;20062;-80
2022/01/04 09:01:27;;;;;;;0.22;0.22;;;;;;;4.26;100.00;98408.38;4992613;28;20123;-78
2022/01/04 09:04:31;;;;;;;0.20;0.20;;;;;;;4.29;100.00;98410.16;4992623;28;20053;-79
2022/01/04 09:07:35;;;;;;;0.90;0.32;;;;;;;4.22;100.00;98402.25;4992631;28;20061;-78
2022/01/04 09:10:38;;;;;;;0.10;0.10;;;;;;;4.21;100.00;98408.22;4992466;28;20049;-78
2022/01/04 09:13:44;;;;;;;0.57;0.40;;;;;;;4.23;100.00;98417.56;4992680;28;20053;-80
2022/01/04 09:20:12;;;;;;;0.90;0.30;;;;;;;4.11;100.00;98426.03;4998861;28;20049;-79
2022/01/04 09:23:20;;;;;;;2.17;0.38;;;;;;;4.09;100.00;98440.28;5012544;28;20041;-80
2022/01/04 09:26:26;;;;;;;0.20;0.20;;;;;;;3.97;100.00;98444.00;4999806;28;20404;-80
2022/01/04 09:29:31;;;;;;;0.57;0.45;;;;;;;3.93;100.00;98443.41;4992320;28;20412;-79
2022/01/04 09:32:35;;;;;;;0.10;0.10;;;;;;;3.82;100.00;98443.16;4989681;28;20087;-79
2022/01/04 09:35:38;;;;;;;0.30;0.30;;;;;;;3.72;100.00;98458.94;4990982;28;20061;-82
2022/01/04 09:38:42;;;;;;;0.90;0.60;;;;;;;3.78;100.00;98448.06;4991938;28;20543;-80
2022/01/04 09:41:45;;;;;;;0.20;0.20;;;;;;;3.76;100.00;98456.78;5012994;28;20073;-82
2022/01/04 09:44:49;;;;;;;0.20;0.20;;;;;;;3.79;100.00;98444.06;4989557;28;20452;-82
2022/01/04 09:47:52;;;;;;;0.63;0.32;;;;;;;3.76;100.00;98450.50;4990209;28;20049;-82
2022/01/04 09:50:59;;;;;;;0.50;0.25;;;;;;;3.76;100.00;98456.03;4989586;28;20483;-81
2022/01/04 09:54:03;;;;;;;0.30;0.30;;;;;;;3.78;100.00;98448.06;4990509;28;20511;-81
2022/01/04 09:57:06;;;;;;;0.30;0.30;;;;;;;3.89;100.00;98459.34;4997377;28;20061;-80
2022/01/04 10:00:14;;;;;;;0.40;0.40;;;;;;;3.93;100.00;98454.44;4991529;28;20495;-80
2022/01/04 10:03:25;;;;;;;0.20;0.20;;;;;;;3.94;100.00;98458.72;4991087;28;20065;-80
2022/01/04 10:06:31;;;;;;;3.03;0.50;;;;;;;3.90;100.00;98469.13;4991679;28;20507;-80
2022/01/04 10:09:45;;;;;;;0.15;0.10;;;;;;;3.91;100.00;98473.41;4990676;28;20409;-81
2022/01/04 10:12:59;;;;;;;0.25;0.25;;;;;;;3.99;100.00;98480.09;4990717;28;20061;-80
2022/01/04 10:16:15;;;;;;;0.10;0.10;;;;;;;4.02;100.00;98478.41;4990534;28;20061;-81
2022/01/04 10:19:34;;;;;;;0.20;0.20;;;;;;;4.07;100.00;98489.56;4990396;28;20057;-79
2022/01/04 10:22:38;;;;;;;0.45;0.45;;;;;;;4.15;100.00;98490.00;4990432;28;20499;-82
2022/01/04 10:25:42;;;;;;;0.10;0.10;;;;;;;4.06;100.00;98496.31;4991145;28;20053;-82
2022/01/04 10:28:46;;;;;;;0.43;0.43;;;;;;;4.17;100.00;98496.56;5009518;28;20057;-80
2022/01/04 10:31:51;;;;;;;0.28;0.28;;;;;;;4.19;100.00;98493.34;5010328;28;20052;-80
2022/01/04 10:34:56;;;;;;;0.30;0.30;;;;;;;4.14;100.00;98494.75;5011262;28;20072;-81
2022/01/04 10:38:11;;;;;;;0.20;0.20;;;;;;;4.31;100.00;98484.88;4971582;28;20061;-81
2022/01/04 10:41:26;;;;;;;0.75;0.38;;;;;;;4.30;100.00;98485.34;4998027;28;20056;-81
2022/01/04 10:44:33;;;;;;;0.20;0.20;;;;;;;4.27;100.00;98500.81;4970452;28;20054;-81
2022/01/04 10:47:36;;;;;;;0.50;0.30;;;;;;;4.21;100.00;98497.16;4978556;28;20057;-80
2022/01/04 10:50:41;;;;;;;0.50;0.30;;;;;;;4.37;100.00;98505.06;4991361;28;20405;-81
2022/01/04 10:53:49;;;;;;;0.10;0.10;;;;;;;4.45;100.00;98495.22;4991039;28;20053;-81
2022/01/04 10:57:07;;;;;;;0.20;0.20;;;;;;;4.52;100.00;98494.13;4991484;28;20057;-81
2022/01/04 11:00:16;;;;;;;0.77;0.45;;;;;;;4.58;100.00;98498.53;4991116;28;20058;-81
2022/01/04 11:03:29;;;;;;;0.40;0.40;;;;;;;4.61;100.00;98508.59;4990841;28;20057;-85
2022/01/04 11:06:38;;;;;;;0.15;0.15;;;;;;;4.59;100.00;98500.03;4991017;28;20120;-80
2022/01/04 11:09:41;;;;;;;0.75;0.75;;;;;;;4.58;100.00;98509.56;4990741;28;20057;-81
2022/01/04 11:12:45;;;;;;;0.20;0.20;;;;;;;4.63;100.00;98512.88;4991131;28;20588;-81
2022/01/04 11:15:50;;;;;;;0.57;0.52;;;;;;;4.67;100.00;98499.69;4990510;28;20053;-81
2022/01/04 11:18:55;;;;;;;0.10;0.10;;;;;;;4.71;100.00;98506.56;4990384;28;20441;-80
2022/01/04 11:22:03;;;;;;;2.22;0.57;;;;;;;4.89;100.00;98505.69;4990552;28;20498;-80
2022/01/04 11:25:08;;;;;;;0.20;0.17;;;;;;;4.93;100.00;98511.78;4991391;28;20134;-81
2022/01/04 11:28:14;;;;;;;0.20;0.10;;;;;;;4.88;100.00;98512.44;4990719;28;20073;-82
2022/01/04 11:31:44;;;;;;;0.30;0.15;;;;;;;4.98;100.00;98514.66;4991122;28;20046;-81
2022/01/04 11:35:12;;;;;;;0.30;0.22;;;;;;;4.95;100.00;98514.84;4989566;28;20495;-80
2022/01/04 11:38:30;;;;;;;1.20;0.73;;;;;;;5.02;100.00;98520.00;4990758;28;20685;-79
2022/01/04 11:41:34;;;;;;;0.30;0.30;;;;;;;5.03;100.00;98521.50;5005913;28;20419;-78
2022/01/04 11:44:47;;;;;;;0.63;0.30;;;;;;;5.05;100.00;98524.56;5009623;28;20511;-79
2022/01/04 11:47:50;;;;;;;0.10;0.10;;;;;;;5.16;100.00;98520.03;4970692;28;20512;-78
2022/01/04 11:50:58;;;;;;;0.45;0.45;;;;;;;5.23;100.00;98514.19;4975652;28;20263;-78
2022/01/04 11:54:14;;;;;;;0.20;0.20;;;;;;;5.29;100.00;98506.00;4969969;28;20061;-78
2022/01/04 11:57:17;;;;;;;7.47;1.13;;;;;;;5.24;100.00;98512.19;4990861;28;20049;-78
2022/01/04 12:00:24;;;;;;;2.70;0.50;;;;;;;5.26;100.00;98512.47;4994352;28;20057;-78
2022/01/04 12:03:49;;;;;;;0.65;0.63;;;;;;;5.25;100.00;98516.44;4993735;28;20057;-79
2022/01/04 12:06:53;;;;;;;0.10;0.10;;;;;;;5.29;100.00;98517.03;4992964;28;20057;-79
2022/01/04 12:10:22;;;;;;;0.40;0.40;;;;;;;5.32;100.00;98514.09;4978882;28;20054;-79
2022/01/04 12:13:46;;;;;;;0.22;0.20;;;;;;;5.45;100.00;98513.06;4974616;28;20053;-78
2022/01/04 12:17:04;;;;;;;0.20;0.20;;;;;;;5.49;100.00;98514.41;4986923;28;20049;-79
2022/01/04 12:20:08;;;;;;;0.80;0.80;;;;;;;5.46;100.00;98512.59;4993695;28;20049;-78
2022/01/04 12:23:26;;;;;;;0.20;0.20;;;;;;;5.49;100.00;98522.69;4993991;28;20126;-79
2022/01/04 12:26:32;;;;;;;16.15;1.45;;;;;;;5.51;100.00;98516.69;4995931;28;20504;-78
2022/01/04 12:29:36;;;;;;;0.52;0.52;;;;;;;5.51;100.00;98517.47;4993081;28;20122;-79
2022/01/04 12:32:39;;;;;;;2.05;0.32;;;;;;;5.61;100.00;98510.59;4993176;28;20292;-78
2022/01/04 12:35:47;;;;;;;0.13;0.13;;;;;;;5.57;100.00;98509.28;4977988;28;20061;-78
2022/01/04 12:38:51;;;;;;;1.27;0.50;;;;;;;5.54;100.00;98515.75;4972691;28;20069;-78
2022/01/04 12:41:55;;;;;;;0.55;0.52;;;;;;;5.43;100.00;98510.78;5011634;28;20404;-78
2022/01/04 12:44:59;;;;;;;11.68;1.42;;;;;;;5.41;100.00;98510.50;5012971;28;20515;-78
2022/01/04 12:48:04;;;;;;;0.30;0.30;;;;;;;5.50;100.00;98507.66;4973679;28;20058;-79
2022/01/04 12:51:29;;;;;;;2.83;0.30;;;;;;;5.58;100.00;98508.81;4973984;28;20390;-78
2022/01/04 12:54:35;;;;;;;0.43;0.40;;;;;;;5.59;100.00;98515.84;4973191;28;20508;-79
2022/01/04 12:57:38;;;;;;;0.40;0.40;;;;;;;5.65;100.00;98508.41;4973883;28;20062;-77
2022/01/04 13:00:50;;;;;;;0.40;0.40;;;;;;;5.73;100.00;98506.06;4994830;28;20049;-83
2022/01/04 13:03:55;;;;;;;0.73;0.73;;;;;;;5.68;100.00;98504.72;4991002;28;20053;-89
2022/01/04 13:07:00;;;;;;;0.30;0.22;;;;;;;5.65;100.00;98494.63;4990704;28;20050;-83
2022/01/04 13:10:07;;;;;;;0.10;0.10;;;;;;;5.83;100.00;98482.63;4988995;28;20058;-79
2022/01/04 13:13:13;;;;;;;3.65;0.40;;;;;;;5.95;100.00;98485.16;4994531;28;20408;-88
2022/01/04 13:16:29;;;;;;;0.10;0.10;;;;;;;5.89;100.00;98475.25;4991201;28;20062;-84
2022/01/04 13:19:37;;;;;;;2.58;1.10;;;;;;;5.90;100.00;98471.22;4993012;28;20073;-88
2022/01/04 13:22:41;;;;;;;6.53;0.90;;;;;;;6.04;100.00;98470.47;4993117;28;20065;-84
2022/01/04 13:25:44;;;;;;;0.22;0.20;;;;;;;6.11;100.00;98479.09;4994577;28;20189;-83
2022/01/04 13:28:57;;;;;;;4.53;1.23;;;;;;;6.13;100.00;98473.88;4977327;28;20065;-82
2022/01/04 13:32:07;;;;;;;8.05;0.63;;;;;;;6.21;100.00;98479.00;4980207;28;20049;-83
2022/01/04 13:35:21;;;;;;;0.10;0.10;;;;;;;6.29;100.00;98491.19;4986931;28;20053;-81
2022/01/04 13:38:27;;;;;;;0.10;0.10;;;;;;;6.29;100.00;98496.72;4984654;28;20491;-82
2022/01/04 13:41:32;;;;;;;0.17;0.17;;;;;;;6.26;100.00;98503.22;4984963;28;20045;-82
2022/01/04 13:44:53;;;;;;;0.20;0.20;;;;;;;6.22;100.00;98502.63;4978039;28;20045;-82
2022/01/04 13:47:59;;;;;;;0.10;0.10;;;;;;;6.19;100.00;98498.06;4971805;28;20057;-84
2022/01/04 13:51:15;;;;;;;2.20;0.95;;;;;;;5.90;100.00;98518.97;4971995;28;20050;-80
2022/01/04 13:54:19;;;;;;;0.20;0.20;;;;;;;5.71;100.00;98514.81;4971752;28;20050;-80
2022/01/04 13:57:29;;;;;;;0.35;0.30;;;;;;;5.79;100.00;98524.25;4990359;28;20054;-81
2022/01/04 14:00:35;;;;;;;1.20;0.47;;;;;;;5.87;100.00;98511.59;4991225;28;20049;-80
2022/01/04 14:03:40;;;;;;;0.10;0.10;;;;;;;6.04;100.00;98515.41;4990509;28;20053;-81
2022/01/04 14:06:51;;;;;;;17.38;0.85;;;;;;;5.96;100.00;98508.75;4983302;28;20045;-80
2022/01/04 14:09:55;;;;;;;0.35;0.35;;;;;;;5.81;100.00;98507.97;4988913;28;20065;-81
2022/01/04 14:12:59;;;;;;;0.20;0.20;;;;;;;5.69;100.00;98503.50;4988728;28;20041;-81
2022/01/04 14:16:11;;;;;;;0.10;0.10;;;;;;;5.77;100.00;98510.16;4989352;28;20053;-81
2022/01/04 14:19:28;;;;;;;9.50;0.80;;;;;;;6.24;100.00;98516.75;4990132;28;20563;-83
2022/01/04 14:22:34;;;;;;;0.40;0.40;;;;;;;6.32;100.00;98510.34;4991561;28;20049;-81
2022/01/04 14:25:37;;;;;;;0.10;0.10;;;;;;;6.33;100.00;98506.34;4989887;28;20061;-83
2022/01/04 14:28:45;;;;;;;0.20;0.20;;;;;;;6.37;100.00;98504.13;4991382;28;20515;-87
2022/01/04 14:31:49;;;;;;;0.30;0.20;;;;;;;6.27;100.00;98504.72;4991256;28;20073;-88
2022/01/04 14:34:54;;;;;;;0.10;0.10;;;;;;;6.17;100.00;98501.31;4990310;28;20057;-90
2022/01/04 14:38:00;;;;;;;0.10;0.10;;;;;;;6.17;100.00;98506.09;4981687;28;20421;-79
2022/01/04 14:41:03;;;;;;;1.65;0.70;;;;;;;6.20;100.00;98502.34;4997954;28;20053;-78